Phoenix, Arizona
Current Conditions -  °F | °C
As of 12:51 AM on Thursday 27 Nov 2014 (Local Time) from KPHX Reporting Station
Clear Clear  
Wind Chill: 54°   Ceiling: Unl
Heat Index: 54°   Visibility: 10mi
Dew Point: 28°   Wind: 0mph
Humidity: 37%   Direction: NA
Pressure: 30.18"   Gusts: NA
Location:  33.45°N, 112.08°W
Report Text: KPHX 270751Z 00000KT 10SM CLR 12/M02 A3018 RMK AO2 SLP210 T01221022
Loading
Personal Weather Stations






























Interactive Weather Map New forecast layout! Learn more

10-Day Weather Forecast

Advertisements
Track Severe Weather on mobile